sensor_id;sensor_type;location;lat;lon;timestamp;P1;durP1;ratioP1;P2;durP2;ratioP2
75930;SDS011;64609;47.052;15.462;2022-11-28T00:01:16;23.70;;;14.35;;
75930;SDS011;64609;47.052;15.462;2022-11-28T00:03:44;24.02;;;14.00;;
75930;SDS011;64609;47.052;15.462;2022-11-28T00:06:10;21.92;;;14.32;;
75930;SDS011;64609;47.052;15.462;2022-11-28T00:08:36;26.92;;;14.65;;
75930;SDS011;64609;47.052;15.462;2022-11-28T00:11:05;24.40;;;14.82;;
75930;SDS011;64609;47.052;15.462;2022-11-28T00:15:58;24.10;;;14.65;;
75930;SDS011;64609;47.052;15.462;2022-11-28T00:18:26;25.23;;;15.18;;
75930;SDS011;64609;47.052;15.462;2022-11-28T00:20:52;25.02;;;15.10;;
75930;SDS011;64609;47.052;15.462;2022-11-28T00:23:24;26.10;;;14.93;;
75930;SDS011;64609;47.052;15.462;2022-11-28T00:25:59;24.05;;;14.15;;
75930;SDS011;64609;47.052;15.462;2022-11-28T00:28:28;34.92;;;13.57;;
75930;SDS011;64609;47.052;15.462;2022-11-28T00:30:54;24.08;;;14.43;;
75930;SDS011;64609;47.052;15.462;2022-11-28T00:33:19;22.40;;;13.82;;
75930;SDS011;64609;47.052;15.462;2022-11-28T00:35:45;23.98;;;14.35;;
75930;SDS011;64609;47.052;15.462;2022-11-28T00:38:11;27.52;;;14.52;;
75930;SDS011;64609;47.052;15.462;2022-11-28T00:40:37;27.00;;;14.73;;
75930;SDS011;64609;47.052;15.462;2022-11-28T00:43:02;22.02;;;13.77;;
75930;SDS011;64609;47.052;15.462;2022-11-28T00:45:28;21.83;;;13.85;;
75930;SDS011;64609;47.052;15.462;2022-11-28T00:47:53;22.92;;;14.38;;
75930;SDS011;64609;47.052;15.462;2022-11-28T00:50:19;23.77;;;13.90;;
75930;SDS011;64609;47.052;15.462;2022-11-28T00:52:45;22.58;;;13.38;;
75930;SDS011;64609;47.052;15.462;2022-11-28T00:55:10;21.95;;;13.18;;
75930;SDS011;64609;47.052;15.462;2022-11-28T00:57:36;25.15;;;13.48;;
75930;SDS011;64609;47.052;15.462;2022-11-28T01:00:03;21.73;;;13.10;;
75930;SDS011;64609;47.052;15.462;2022-11-28T01:02:30;26.02;;;13.95;;
75930;SDS011;64609;47.052;15.462;2022-11-28T01:04:55;22.75;;;13.57;;
75930;SDS011;64609;47.052;15.462;2022-11-28T01:07:21;23.58;;;13.65;;
75930;SDS011;64609;47.052;15.462;2022-11-28T01:09:46;21.38;;;14.02;;
75930;SDS011;64609;47.052;15.462;2022-11-28T01:12:12;24.80;;;14.15;;
75930;SDS011;64609;47.052;15.462;2022-11-28T01:14:38;26.70;;;14.27;;
75930;SDS011;64609;47.052;15.462;2022-11-28T01:17:03;23.17;;;13.40;;
75930;SDS011;64609;47.052;15.462;2022-11-28T01:19:29;22.58;;;13.75;;
75930;SDS011;64609;47.052;15.462;2022-11-28T01:21:54;23.38;;;13.95;;
75930;SDS011;64609;47.052;15.462;2022-11-28T01:24:20;23.33;;;14.25;;
75930;SDS011;64609;47.052;15.462;2022-11-28T01:26:46;21.58;;;14.30;;
75930;SDS011;64609;47.052;15.462;2022-11-28T01:29:11;24.42;;;13.80;;
75930;SDS011;64609;47.052;15.462;2022-11-28T01:31:37;27.55;;;15.13;;
75930;SDS011;64609;47.052;15.462;2022-11-28T01:34:03;24.88;;;14.90;;
75930;SDS011;64609;47.052;15.462;2022-11-28T01:36:29;19.85;;;13.73;;
75930;SDS011;64609;47.052;15.462;2022-11-28T01:38:55;21.83;;;13.40;;
75930;SDS011;64609;47.052;15.462;2022-11-28T01:41:22;24.27;;;14.60;;
75930;SDS011;64609;47.052;15.462;2022-11-28T01:43:56;22.67;;;13.75;;
75930;SDS011;64609;47.052;15.462;2022-11-28T01:46:25;23.08;;;14.18;;
75930;SDS011;64609;47.052;15.462;2022-11-28T01:48:51;21.90;;;13.75;;
75930;SDS011;64609;47.052;15.462;2022-11-28T01:51:18;22.00;;;13.38;;
75930;SDS011;64609;47.052;15.462;2022-11-28T01:53:45;18.88;;;13.55;;
75930;SDS011;64609;47.052;15.462;2022-11-28T01:56:13;23.15;;;14.60;;
75930;SDS011;64609;47.052;15.462;2022-11-28T02:01:11;21.13;;;13.52;;
75930;SDS011;64609;47.052;15.462;2022-11-28T02:03:39;25.10;;;14.50;;
75930;SDS011;64609;47.052;15.462;2022-11-28T02:06:08;23.67;;;14.05;;
75930;SDS011;64609;47.052;15.462;2022-11-28T02:08:35;26.35;;;14.13;;
75930;SDS011;64609;47.052;15.462;2022-11-28T02:11:05;23.25;;;13.77;;
75930;SDS011;64609;47.052;15.462;2022-11-28T02:13:40;23.13;;;14.20;;
75930;SDS011;64609;47.052;15.462;2022-11-28T02:16:24;21.20;;;14.15;;
75930;SDS011;64609;47.052;15.462;2022-11-28T02:38:35;25.27;;;14.25;;
75930;SDS011;64609;47.052;15.462;2022-11-28T02:41:17;25.50;;;14.23;;
75930;SDS011;64609;47.052;15.462;2022-11-28T02:43:54;26.27;;;12.65;;
75930;SDS011;64609;47.052;15.462;2022-11-28T02:46:29;23.05;;;13.10;;
75930;SDS011;64609;47.052;15.462;2022-11-28T02:49:03;22.50;;;13.38;;
75930;SDS011;64609;47.052;15.462;2022-11-28T02:51:44;22.35;;;13.63;;
75930;SDS011;64609;47.052;15.462;2022-11-28T02:54:15;22.52;;;12.93;;
75930;SDS011;64609;47.052;15.462;2022-11-28T02:56:47;21.48;;;12.45;;
75930;SDS011;64609;47.052;15.462;2022-11-28T02:59:59;21.35;;;13.15;;
75930;SDS011;64609;47.052;15.462;2022-11-28T03:04:49;19.80;;;13.00;;
75930;SDS011;64609;47.052;15.462;2022-11-28T03:10:11;21.38;;;12.10;;
75930;SDS011;64609;47.052;15.462;2022-11-28T03:15:21;21.27;;;12.65;;
75930;SDS011;64609;47.052;15.462;2022-11-28T03:18:01;21.38;;;12.55;;
75930;SDS011;64609;47.052;15.462;2022-11-28T03:23:43;21.63;;;12.40;;
75930;SDS011;64609;47.052;15.462;2022-11-28T03:26:22;18.75;;;12.45;;
75930;SDS011;64609;47.052;15.462;2022-11-28T03:28:58;20.98;;;11.95;;
75930;SDS011;64609;47.052;15.462;2022-11-28T03:31:48;20.40;;;12.07;;
75930;SDS011;64609;47.052;15.462;2022-11-28T03:34:15;16.92;;;11.63;;
75930;SDS011;64609;47.052;15.462;2022-11-28T03:36:44;18.63;;;11.85;;
75930;SDS011;64609;47.052;15.462;2022-11-28T03:39:19;18.77;;;11.77;;
75930;SDS011;64609;47.052;15.462;2022-11-28T03:44:27;19.90;;;12.40;;
75930;SDS011;64609;47.052;15.462;2022-11-28T03:46:55;23.67;;;13.07;;
75930;SDS011;64609;47.052;15.462;2022-11-28T03:49:26;19.20;;;12.63;;
75930;SDS011;64609;47.052;15.462;2022-11-28T03:52:05;20.85;;;14.25;;
75930;SDS011;64609;47.052;15.462;2022-11-28T03:54:49;23.10;;;13.00;;
75930;SDS011;64609;47.052;15.462;2022-11-28T03:57:28;19.05;;;12.90;;
75930;SDS011;64609;47.052;15.462;2022-11-28T04:00:00;19.63;;;12.13;;
75930;SDS011;64609;47.052;15.462;2022-11-28T04:07:53;28.58;;;14.63;;
75930;SDS011;64609;47.052;15.462;2022-11-28T04:10:34;32.83;;;15.15;;
75930;SDS011;64609;47.052;15.462;2022-11-28T04:13:20;27.80;;;14.55;;
75930;SDS011;64609;47.052;15.462;2022-11-28T04:24:32;29.33;;;14.18;;
75930;SDS011;64609;47.052;15.462;2022-11-28T04:27:07;25.02;;;14.73;;
75930;SDS011;64609;47.052;15.462;2022-11-28T04:29:39;24.05;;;13.68;;
75930;SDS011;64609;47.052;15.462;2022-11-28T04:32:10;21.73;;;13.43;;
75930;SDS011;64609;47.052;15.462;2022-11-28T04:34:38;24.50;;;13.45;;
75930;SDS011;64609;47.052;15.462;2022-11-28T04:37:07;25.08;;;15.00;;
75930;SDS011;64609;47.052;15.462;2022-11-28T04:39:38;25.25;;;15.45;;
75930;SDS011;64609;47.052;15.462;2022-11-28T04:42:08;23.88;;;14.90;;
75930;SDS011;64609;47.052;15.462;2022-11-28T04:44:51;19.98;;;13.43;;
75930;SDS011;64609;47.052;15.462;2022-11-28T04:47:21;24.63;;;15.05;;
75930;SDS011;64609;47.052;15.462;2022-11-28T04:49:48;26.02;;;14.40;;
75930;SDS011;64609;47.052;15.462;2022-11-28T04:55:09;20.55;;;13.27;;
75930;SDS011;64609;47.052;15.462;2022-11-28T04:57:48;21.63;;;13.75;;
75930;SDS011;64609;47.052;15.462;2022-11-28T05:00:19;22.30;;;14.13;;
75930;SDS011;64609;47.052;15.462;2022-11-28T05:02:46;23.45;;;14.23;;
75930;SDS011;64609;47.052;15.462;2022-11-28T05:05:16;22.87;;;13.33;;
75930;SDS011;64609;47.052;15.462;2022-11-28T05:07:44;24.27;;;13.88;;
75930;SDS011;64609;47.052;15.462;2022-11-28T05:10:11;22.52;;;13.70;;
75930;SDS011;64609;47.052;15.462;2022-11-28T05:12:37;23.73;;;13.88;;
75930;SDS011;64609;47.052;15.462;2022-11-28T05:15:03;24.35;;;14.00;;
75930;SDS011;64609;47.052;15.462;2022-11-28T05:17:29;20.20;;;13.20;;
75930;SDS011;64609;47.052;15.462;2022-11-28T05:19:55;27.90;;;13.32;;
75930;SDS011;64609;47.052;15.462;2022-11-28T05:22:21;24.27;;;13.32;;
75930;SDS011;64609;47.052;15.462;2022-11-28T05:24:47;23.30;;;13.10;;
75930;SDS011;64609;47.052;15.462;2022-11-28T05:27:12;21.23;;;13.02;;
75930;SDS011;64609;47.052;15.462;2022-11-28T05:29:38;27.95;;;14.10;;
75930;SDS011;64609;47.052;15.462;2022-11-28T05:32:07;25.75;;;15.35;;
75930;SDS011;64609;47.052;15.462;2022-11-28T05:34:34;29.13;;;16.15;;
75930;SDS011;64609;47.052;15.462;2022-11-28T05:37:00;27.55;;;14.50;;
75930;SDS011;64609;47.052;15.462;2022-11-28T05:39:25;25.92;;;15.88;;
75930;SDS011;64609;47.052;15.462;2022-11-28T05:41:53;26.45;;;15.07;;
75930;SDS011;64609;47.052;15.462;2022-11-28T05:44:19;32.20;;;15.95;;
75930;SDS011;64609;47.052;15.462;2022-11-28T05:46:45;32.22;;;19.13;;
75930;SDS011;64609;47.052;15.462;2022-11-28T05:49:11;36.58;;;17.75;;
75930;SDS011;64609;47.052;15.462;2022-11-28T05:51:36;32.17;;;17.70;;
75930;SDS011;64609;47.052;15.462;2022-11-28T05:54:02;34.15;;;17.73;;
75930;SDS011;64609;47.052;15.462;2022-11-28T05:56:27;32.83;;;16.98;;
75930;SDS011;64609;47.052;15.462;2022-11-28T05:58:53;29.40;;;16.52;;
75930;SDS011;64609;47.052;15.462;2022-11-28T06:01:20;27.30;;;15.75;;
75930;SDS011;64609;47.052;15.462;2022-11-28T06:03:48;31.10;;;16.83;;
75930;SDS011;64609;47.052;15.462;2022-11-28T06:06:19;33.33;;;19.10;;
75930;SDS011;64609;47.052;15.462;2022-11-28T06:08:46;30.73;;;18.20;;
75930;SDS011;64609;47.052;15.462;2022-11-28T06:11:13;35.67;;;21.60;;
75930;SDS011;64609;47.052;15.462;2022-11-28T06:13:40;41.08;;;21.80;;
75930;SDS011;64609;47.052;15.462;2022-11-28T06:16:11;34.72;;;21.48;;
75930;SDS011;64609;47.052;15.462;2022-11-28T06:18:38;40.40;;;22.17;;
75930;SDS011;64609;47.052;15.462;2022-11-28T06:21:05;38.70;;;22.45;;
75930;SDS011;64609;47.052;15.462;2022-11-28T06:23:33;36.17;;;21.98;;
75930;SDS011;64609;47.052;15.462;2022-11-28T06:26:05;33.58;;;21.00;;
75930;SDS011;64609;47.052;15.462;2022-11-28T06:28:33;34.97;;;19.00;;
75930;SDS011;64609;47.052;15.462;2022-11-28T06:31:00;41.08;;;19.50;;
75930;SDS011;64609;47.052;15.462;2022-11-28T06:33:26;34.22;;;19.00;;
75930;SDS011;64609;47.052;15.462;2022-11-28T06:35:57;37.00;;;19.85;;
75930;SDS011;64609;47.052;15.462;2022-11-28T06:38:24;32.08;;;18.15;;
75930;SDS011;64609;47.052;15.462;2022-11-28T06:40:50;32.42;;;19.50;;
75930;SDS011;64609;47.052;15.462;2022-11-28T06:43:15;37.83;;;19.52;;
75930;SDS011;64609;47.052;15.462;2022-11-28T06:45:41;33.25;;;18.63;;
75930;SDS011;64609;47.052;15.462;2022-11-28T06:48:06;34.00;;;19.52;;
75930;SDS011;64609;47.052;15.462;2022-11-28T06:50:32;35.50;;;18.42;;
75930;SDS011;64609;47.052;15.462;2022-11-28T06:52:58;33.95;;;20.20;;
75930;SDS011;64609;47.052;15.462;2022-11-28T06:55:23;35.17;;;21.58;;
75930;SDS011;64609;47.052;15.462;2022-11-28T06:57:49;33.67;;;19.10;;
75930;SDS011;64609;47.052;15.462;2022-11-28T07:00:14;38.80;;;18.25;;
75930;SDS011;64609;47.052;15.462;2022-11-28T07:02:41;38.85;;;19.40;;
75930;SDS011;64609;47.052;15.462;2022-11-28T07:05:07;42.80;;;19.52;;
75930;SDS011;64609;47.052;15.462;2022-11-28T07:07:32;57.92;;;21.10;;
75930;SDS011;64609;47.052;15.462;2022-11-28T07:09:58;72.68;;;21.60;;
75930;SDS011;64609;47.052;15.462;2022-11-28T07:12:23;48.42;;;22.20;;
75930;SDS011;64609;47.052;15.462;2022-11-28T07:14:49;60.05;;;23.00;;
75930;SDS011;64609;47.052;15.462;2022-11-28T07:17:15;46.05;;;19.27;;
75930;SDS011;64609;47.052;15.462;2022-11-28T07:19:41;49.55;;;20.27;;
75930;SDS011;64609;47.052;15.462;2022-11-28T07:22:08;60.35;;;22.98;;
75930;SDS011;64609;47.052;15.462;2022-11-28T07:24:35;64.53;;;22.63;;
75930;SDS011;64609;47.052;15.462;2022-11-28T07:27:01;46.08;;;20.92;;
75930;SDS011;64609;47.052;15.462;2022-11-28T07:29:27;51.50;;;21.63;;
75930;SDS011;64609;47.052;15.462;2022-11-28T07:31:59;43.63;;;20.65;;
75930;SDS011;64609;47.052;15.462;2022-11-28T07:34:26;59.25;;;20.70;;
75930;SDS011;64609;47.052;15.462;2022-11-28T07:36:51;63.65;;;20.33;;
75930;SDS011;64609;47.052;15.462;2022-11-28T07:39:17;91.40;;;22.85;;
75930;SDS011;64609;47.052;15.462;2022-11-28T07:41:43;56.70;;;22.83;;
75930;SDS011;64609;47.052;15.462;2022-11-28T07:44:08;55.88;;;19.63;;
75930;SDS011;64609;47.052;15.462;2022-11-28T07:46:35;52.47;;;20.52;;
75930;SDS011;64609;47.052;15.462;2022-11-28T07:49:00;37.45;;;18.27;;
75930;SDS011;64609;47.052;15.462;2022-11-28T07:51:29;38.88;;;20.23;;
75930;SDS011;64609;47.052;15.462;2022-11-28T07:53:56;45.17;;;19.30;;
75930;SDS011;64609;47.052;15.462;2022-11-28T07:56:24;51.88;;;20.80;;
75930;SDS011;64609;47.052;15.462;2022-11-28T07:58:51;50.95;;;20.83;;
75930;SDS011;64609;47.052;15.462;2022-11-28T08:01:21;69.53;;;22.52;;
75930;SDS011;64609;47.052;15.462;2022-11-28T08:03:48;82.82;;;24.10;;
75930;SDS011;64609;47.052;15.462;2022-11-28T08:06:15;137.20;;;24.17;;
75930;SDS011;64609;47.052;15.462;2022-11-28T08:08:42;203.52;;;27.35;;
75930;SDS011;64609;47.052;15.462;2022-11-28T08:11:09;103.90;;;23.15;;
75930;SDS011;64609;47.052;15.462;2022-11-28T08:13:36;82.68;;;24.05;;
75930;SDS011;64609;47.052;15.462;2022-11-28T08:16:06;107.30;;;22.98;;
75930;SDS011;64609;47.052;15.462;2022-11-28T08:18:34;75.13;;;23.48;;
75930;SDS011;64609;47.052;15.462;2022-11-28T08:21:07;122.53;;;23.55;;
75930;SDS011;64609;47.052;15.462;2022-11-28T08:23:35;72.80;;;22.30;;
75930;SDS011;64609;47.052;15.462;2022-11-28T08:26:02;171.40;;;23.60;;
75930;SDS011;64609;47.052;15.462;2022-11-28T08:28:30;66.22;;;22.70;;
75930;SDS011;64609;47.052;15.462;2022-11-28T08:30:55;95.82;;;23.17;;
75930;SDS011;64609;47.052;15.462;2022-11-28T08:33:24;84.90;;;20.98;;
75930;SDS011;64609;47.052;15.462;2022-11-28T08:35:50;112.32;;;23.95;;
75930;SDS011;64609;47.052;15.462;2022-11-28T08:38:16;48.65;;;21.15;;
75930;SDS011;64609;47.052;15.462;2022-11-28T08:40:42;254.57;;;26.33;;
75930;SDS011;64609;47.052;15.462;2022-11-28T08:43:08;94.18;;;22.45;;
75930;SDS011;64609;47.052;15.462;2022-11-28T08:45:36;126.10;;;23.20;;
75930;SDS011;64609;47.052;15.462;2022-11-28T08:48:02;134.18;;;23.65;;
75930;SDS011;64609;47.052;15.462;2022-11-28T08:50:29;101.63;;;23.00;;
75930;SDS011;64609;47.052;15.462;2022-11-28T08:52:55;146.07;;;23.23;;
75930;SDS011;64609;47.052;15.462;2022-11-28T08:55:20;49.38;;;22.13;;
75930;SDS011;64609;47.052;15.462;2022-11-28T08:57:46;36.15;;;20.83;;
75930;SDS011;64609;47.052;15.462;2022-11-28T09:00:12;42.83;;;21.73;;
75930;SDS011;64609;47.052;15.462;2022-11-28T09:02:38;54.08;;;21.25;;
75930;SDS011;64609;47.052;15.462;2022-11-28T09:05:04;51.83;;;20.95;;
75930;SDS011;64609;47.052;15.462;2022-11-28T09:07:30;40.28;;;20.85;;
75930;SDS011;64609;47.052;15.462;2022-11-28T09:09:55;48.70;;;20.92;;
75930;SDS011;64609;47.052;15.462;2022-11-28T09:12:21;79.90;;;22.30;;
75930;SDS011;64609;47.052;15.462;2022-11-28T09:14:46;41.35;;;21.13;;
75930;SDS011;64609;47.052;15.462;2022-11-28T09:17:12;49.92;;;21.95;;
75930;SDS011;64609;47.052;15.462;2022-11-28T09:19:39;50.92;;;21.20;;
75930;SDS011;64609;47.052;15.462;2022-11-28T09:22:05;53.00;;;21.70;;
75930;SDS011;64609;47.052;15.462;2022-11-28T09:24:31;77.97;;;23.45;;
75930;SDS011;64609;47.052;15.462;2022-11-28T09:26:57;42.47;;;21.75;;
75930;SDS011;64609;47.052;15.462;2022-11-28T09:29:23;45.28;;;21.35;;
75930;SDS011;64609;47.052;15.462;2022-11-28T09:31:49;36.08;;;20.20;;
75930;SDS011;64609;47.052;15.462;2022-11-28T09:34:14;36.97;;;20.83;;
75930;SDS011;64609;47.052;15.462;2022-11-28T09:36:40;47.58;;;20.92;;
75930;SDS011;64609;47.052;15.462;2022-11-28T09:39:06;30.13;;;20.75;;
75930;SDS011;64609;47.052;15.462;2022-11-28T09:41:39;33.10;;;20.35;;
75930;SDS011;64609;47.052;15.462;2022-11-28T09:44:28;39.08;;;21.77;;
75930;SDS011;64609;47.052;15.462;2022-11-28T09:47:03;39.20;;;21.02;;
75930;SDS011;64609;47.052;15.462;2022-11-28T09:52:27;39.30;;;20.98;;
75930;SDS011;64609;47.052;15.462;2022-11-28T09:55:09;38.10;;;19.05;;
75930;SDS011;64609;47.052;15.462;2022-11-28T09:57:45;34.60;;;20.83;;
75930;SDS011;64609;47.052;15.462;2022-11-28T10:03:00;32.10;;;19.02;;
75930;SDS011;64609;47.052;15.462;2022-11-28T10:05:35;31.23;;;19.67;;
75930;SDS011;64609;47.052;15.462;2022-11-28T10:11:02;34.38;;;19.45;;
75930;SDS011;64609;47.052;15.462;2022-11-28T10:13:38;31.65;;;18.85;;
75930;SDS011;64609;47.052;15.462;2022-11-28T10:16:11;33.05;;;19.25;;
75930;SDS011;64609;47.052;15.462;2022-11-28T10:19:06;43.15;;;20.23;;
75930;SDS011;64609;47.052;15.462;2022-11-28T10:21:40;31.77;;;19.45;;
75930;SDS011;64609;47.052;15.462;2022-11-28T10:24:11;39.90;;;21.05;;
75930;SDS011;64609;47.052;15.462;2022-11-28T10:29:17;28.15;;;17.95;;
75930;SDS011;64609;47.052;15.462;2022-11-28T10:31:53;32.92;;;19.13;;
75930;SDS011;64609;47.052;15.462;2022-11-28T10:34:27;35.28;;;20.67;;
75930;SDS011;64609;47.052;15.462;2022-11-28T10:39:38;39.20;;;20.02;;
75930;SDS011;64609;47.052;15.462;2022-11-28T10:53:04;36.55;;;20.88;;
75930;SDS011;64609;47.052;15.462;2022-11-28T11:03:35;34.83;;;18.70;;
75930;SDS011;64609;47.052;15.462;2022-11-28T11:06:03;29.08;;;19.10;;
75930;SDS011;64609;47.052;15.462;2022-11-28T11:08:32;27.15;;;17.70;;
75930;SDS011;64609;47.052;15.462;2022-11-28T11:13:30;27.27;;;17.38;;
75930;SDS011;64609;47.052;15.462;2022-11-28T11:15:58;23.23;;;16.33;;
75930;SDS011;64609;47.052;15.462;2022-11-28T11:23:45;26.95;;;14.95;;
75930;SDS011;64609;47.052;15.462;2022-11-28T11:29:21;24.77;;;14.85;;
75930;SDS011;64609;47.052;15.462;2022-11-28T11:31:53;26.48;;;15.77;;
75930;SDS011;64609;47.052;15.462;2022-11-28T11:34:20;23.17;;;16.08;;
75930;SDS011;64609;47.052;15.462;2022-11-28T11:36:47;31.27;;;16.70;;
75930;SDS011;64609;47.052;15.462;2022-11-28T11:39:23;27.85;;;17.67;;
75930;SDS011;64609;47.052;15.462;2022-11-28T11:44:30;29.95;;;18.65;;
75930;SDS011;64609;47.052;15.462;2022-11-28T11:49:47;30.23;;;16.52;;
75930;SDS011;64609;47.052;15.462;2022-11-28T11:52:20;20.88;;;15.93;;
75930;SDS011;64609;47.052;15.462;2022-11-28T11:54:53;23.98;;;15.70;;
75930;SDS011;64609;47.052;15.462;2022-11-28T11:57:21;26.23;;;16.20;;
75930;SDS011;64609;47.052;15.462;2022-11-28T11:59:58;23.17;;;15.95;;
75930;SDS011;64609;47.052;15.462;2022-11-28T12:02:40;25.30;;;14.95;;
75930;SDS011;64609;47.052;15.462;2022-11-28T12:05:12;27.63;;;16.55;;
75930;SDS011;64609;47.052;15.462;2022-11-28T12:10:42;27.25;;;15.77;;
75930;SDS011;64609;47.052;15.462;2022-11-28T12:13:22;30.40;;;15.77;;
75930;SDS011;64609;47.052;15.462;2022-11-28T12:18:47;29.60;;;16.20;;
75930;SDS011;64609;47.052;15.462;2022-11-28T12:21:24;30.55;;;16.55;;
75930;SDS011;64609;47.052;15.462;2022-11-28T12:26:44;27.15;;;15.30;;
75930;SDS011;64609;47.052;15.462;2022-11-28T12:46:23;28.25;;;15.63;;
75930;SDS011;64609;47.052;15.462;2022-11-28T12:56:59;33.20;;;17.20;;
75930;SDS011;64609;47.052;15.462;2022-11-28T12:59:54;23.48;;;15.88;;
75930;SDS011;64609;47.052;15.462;2022-11-28T13:02:31;29.77;;;16.35;;
75930;SDS011;64609;47.052;15.462;2022-11-28T13:10:44;24.48;;;15.90;;
75930;SDS011;64609;47.052;15.462;2022-11-28T13:13:27;28.27;;;17.02;;
75930;SDS011;64609;47.052;15.462;2022-11-28T13:18:39;25.83;;;16.88;;
75930;SDS011;64609;47.052;15.462;2022-11-28T13:21:35;31.70;;;15.77;;
75930;SDS011;64609;47.052;15.462;2022-11-28T13:24:28;24.63;;;16.35;;
75930;SDS011;64609;47.052;15.462;2022-11-28T13:27:17;27.73;;;16.42;;
75930;SDS011;64609;47.052;15.462;2022-11-28T13:30:11;22.70;;;15.60;;
75930;SDS011;64609;47.052;15.462;2022-11-28T13:35:39;25.42;;;15.30;;
75930;SDS011;64609;47.052;15.462;2022-11-28T13:38:16;30.98;;;16.17;;
75930;SDS011;64609;47.052;15.462;2022-11-28T13:45:58;27.60;;;17.83;;
75930;SDS011;64609;47.052;15.462;2022-11-28T13:51:00;29.88;;;17.42;;
75930;SDS011;64609;47.052;15.462;2022-11-28T13:53:44;24.65;;;16.33;;
75930;SDS011;64609;47.052;15.462;2022-11-28T13:56:18;31.48;;;17.70;;
75930;SDS011;64609;47.052;15.462;2022-11-28T13:58:57;28.58;;;16.50;;
75930;SDS011;64609;47.052;15.462;2022-11-28T14:01:29;26.35;;;17.30;;
75930;SDS011;64609;47.052;15.462;2022-11-28T14:04:11;27.40;;;16.92;;
75930;SDS011;64609;47.052;15.462;2022-11-28T14:06:40;25.70;;;17.15;;
75930;SDS011;64609;47.052;15.462;2022-11-28T14:14:53;35.03;;;18.40;;
75930;SDS011;64609;47.052;15.462;2022-11-28T14:25:51;30.98;;;19.48;;
75930;SDS011;64609;47.052;15.462;2022-11-28T14:28:21;32.83;;;19.10;;
75930;SDS011;64609;47.052;15.462;2022-11-28T14:30:50;36.90;;;20.80;;
75930;SDS011;64609;47.052;15.462;2022-11-28T14:33:35;38.40;;;21.17;;
75930;SDS011;64609;47.052;15.462;2022-11-28T14:49:46;35.45;;;21.80;;
75930;SDS011;64609;47.052;15.462;2022-11-28T14:52:16;34.47;;;21.33;;
75930;SDS011;64609;47.052;15.462;2022-11-28T14:54:45;31.48;;;20.38;;
75930;SDS011;64609;47.052;15.462;2022-11-28T14:57:21;32.30;;;21.27;;
75930;SDS011;64609;47.052;15.462;2022-11-28T14:59:49;34.00;;;22.10;;
75930;SDS011;64609;47.052;15.462;2022-11-28T15:10:55;33.50;;;21.65;;
75930;SDS011;64609;47.052;15.462;2022-11-28T15:16:11;44.08;;;22.25;;
75930;SDS011;64609;47.052;15.462;2022-11-28T15:18:40;38.25;;;21.48;;
75930;SDS011;64609;47.052;15.462;2022-11-28T15:21:12;37.63;;;23.08;;
75930;SDS011;64609;47.052;15.462;2022-11-28T15:23:40;36.08;;;21.92;;
75930;SDS011;64609;47.052;15.462;2022-11-28T15:26:05;37.33;;;23.08;;
75930;SDS011;64609;47.052;15.462;2022-11-28T15:28:41;36.42;;;22.15;;
75930;SDS011;64609;47.052;15.462;2022-11-28T15:31:15;41.25;;;23.55;;
75930;SDS011;64609;47.052;15.462;2022-11-28T15:33:45;37.60;;;22.88;;
75930;SDS011;64609;47.052;15.462;2022-11-28T15:36:27;39.83;;;22.90;;
75930;SDS011;64609;47.052;15.462;2022-11-28T15:38:54;33.08;;;22.38;;
75930;SDS011;64609;47.052;15.462;2022-11-28T15:41:24;34.15;;;22.73;;
75930;SDS011;64609;47.052;15.462;2022-11-28T15:43:51;38.92;;;23.08;;
75930;SDS011;64609;47.052;15.462;2022-11-28T15:46:19;39.38;;;23.25;;
75930;SDS011;64609;47.052;15.462;2022-11-28T15:48:53;44.15;;;24.40;;
75930;SDS011;64609;47.052;15.462;2022-11-28T15:51:36;46.10;;;25.83;;
75930;SDS011;64609;47.052;15.462;2022-11-28T15:54:02;44.15;;;24.02;;
75930;SDS011;64609;47.052;15.462;2022-11-28T15:57:06;43.38;;;24.13;;
75930;SDS011;64609;47.052;15.462;2022-11-28T15:59:57;41.63;;;22.90;;
75930;SDS011;64609;47.052;15.462;2022-11-28T16:02:25;41.90;;;23.80;;
75930;SDS011;64609;47.052;15.462;2022-11-28T16:05:38;40.22;;;23.33;;
75930;SDS011;64609;47.052;15.462;2022-11-28T16:07:46;38.33;;;24.75;;
75930;SDS011;64609;47.052;15.462;2022-11-28T16:10:21;41.80;;;25.38;;
75930;SDS011;64609;47.052;15.462;2022-11-28T16:12:49;41.78;;;25.08;;
75930;SDS011;64609;47.052;15.462;2022-11-28T16:15:23;41.15;;;24.15;;
75930;SDS011;64609;47.052;15.462;2022-11-28T16:17:52;47.10;;;24.73;;
75930;SDS011;64609;47.052;15.462;2022-11-28T16:20:22;41.17;;;24.15;;
75930;SDS011;64609;47.052;15.462;2022-11-28T16:22:56;39.22;;;25.60;;
75930;SDS011;64609;47.052;15.462;2022-11-28T16:25:24;55.22;;;27.95;;
75930;SDS011;64609;47.052;15.462;2022-11-28T16:27:51;45.25;;;26.02;;
75930;SDS011;64609;47.052;15.462;2022-11-28T16:33:32;46.25;;;26.58;;
75930;SDS011;64609;47.052;15.462;2022-11-28T16:38:42;52.13;;;27.73;;
75930;SDS011;64609;47.052;15.462;2022-11-28T16:41:15;56.35;;;28.70;;
75930;SDS011;64609;47.052;15.462;2022-11-28T16:43:48;66.10;;;32.60;;
75930;SDS011;64609;47.052;15.462;2022-11-28T16:46:21;60.70;;;28.67;;
75930;SDS011;64609;47.052;15.462;2022-11-28T16:48:55;54.65;;;29.70;;
75930;SDS011;64609;47.052;15.462;2022-11-28T16:53:57;45.72;;;26.15;;
75930;SDS011;64609;47.052;15.462;2022-11-28T16:59:01;51.08;;;26.77;;
75930;SDS011;64609;47.052;15.462;2022-11-28T17:01:35;48.55;;;29.40;;
75930;SDS011;64609;47.052;15.462;2022-11-28T17:04:01;49.05;;;28.08;;
75930;SDS011;64609;47.052;15.462;2022-11-28T17:06:28;49.30;;;28.27;;
75930;SDS011;64609;47.052;15.462;2022-11-28T17:09:01;53.03;;;27.00;;
75930;SDS011;64609;47.052;15.462;2022-11-28T17:11:32;47.25;;;26.52;;
75930;SDS011;64609;47.052;15.462;2022-11-28T17:14:00;44.85;;;26.85;;
75930;SDS011;64609;47.052;15.462;2022-11-28T17:16:28;53.67;;;29.27;;
75930;SDS011;64609;47.052;15.462;2022-11-28T17:18:57;57.97;;;30.10;;
75930;SDS011;64609;47.052;15.462;2022-11-28T17:24:01;60.92;;;33.42;;
75930;SDS011;64609;47.052;15.462;2022-11-28T17:26:27;54.72;;;32.63;;
75930;SDS011;64609;47.052;15.462;2022-11-28T17:28:53;57.33;;;32.47;;
75930;SDS011;64609;47.052;15.462;2022-11-28T17:31:19;59.30;;;33.30;;
75930;SDS011;64609;47.052;15.462;2022-11-28T17:33:45;53.10;;;29.85;;
75930;SDS011;64609;47.052;15.462;2022-11-28T17:36:11;51.55;;;28.58;;
75930;SDS011;64609;47.052;15.462;2022-11-28T17:38:37;49.30;;;29.10;;
75930;SDS011;64609;47.052;15.462;2022-11-28T17:41:03;54.17;;;29.80;;
75930;SDS011;64609;47.052;15.462;2022-11-28T17:43:29;50.42;;;27.35;;
75930;SDS011;64609;47.052;15.462;2022-11-28T17:45:55;49.38;;;28.75;;
75930;SDS011;64609;47.052;15.462;2022-11-28T17:48:21;53.65;;;29.88;;
75930;SDS011;64609;47.052;15.462;2022-11-28T17:50:48;63.72;;;28.67;;
75930;SDS011;64609;47.052;15.462;2022-11-28T17:53:15;56.08;;;30.63;;
75930;SDS011;64609;47.052;15.462;2022-11-28T17:55:43;52.17;;;27.98;;